Time;durP1;ratioP1;P1;durP2;ratioP2;P2;SDS_P1;SDS_P2;PMS_P1;PMS_P2;Temp;Humidity;BMP_temperature;BMP_pressure;BME280_temperature;BME280_humidity;BME280_pressure;Samples;Min_cycle;Max_cycle;Signal;HPM_P1;HPM_P2
2022/10/22 00:01:14;;;;;;;11.48;5.40;;;;;;;10.30;100.00;100782.34;5069677;28;20072;-56
2022/10/22 00:03:42;;;;;;;10.43;5.35;;;;;;;10.28;100.00;100784.22;5069336;28;20052;-57
2022/10/22 00:06:10;;;;;;;11.77;4.85;;;;;;;10.26;100.00;100791.38;5069316;28;20135;-57
2022/10/22 00:08:38;;;;;;;9.80;4.70;;;;;;;10.24;100.00;100785.38;5069198;28;20048;-57
2022/10/22 00:11:12;;;;;;;9.40;5.03;;;;;;;10.21;100.00;100793.47;5073072;28;20054;-57
2022/10/22 00:13:42;;;;;;;9.13;5.03;;;;;;;10.21;100.00;100794.31;5072794;28;20048;-57
2022/10/22 00:16:10;;;;;;;8.15;4.43;;;;;;;10.19;100.00;100790.94;5071912;28;20055;-56
2022/10/22 00:18:39;;;;;;;10.68;4.78;;;;;;;10.18;100.00;100791.03;5069658;28;20080;-56
2022/10/22 00:21:08;;;;;;;9.25;4.47;;;;;;;10.15;100.00;100792.06;5070266;28;20564;-56
2022/10/22 00:23:40;;;;;;;8.75;4.45;;;;;;;10.15;100.00;100795.53;5072642;28;20053;-56
2022/10/22 00:26:09;;;;;;;9.75;5.32;;;;;;;10.11;100.00;100798.47;5072714;28;20102;-53
2022/10/22 00:28:38;;;;;;;12.15;6.80;;;;;;;10.14;100.00;100800.88;5070175;28;20086;-56
2022/10/22 00:31:07;;;;;;;8.98;4.88;;;;;;;10.10;100.00;100807.28;5069498;28;20094;-56
2022/10/22 00:33:36;;;;;;;10.02;5.75;;;;;;;10.11;100.00;100807.19;5071256;28;20048;-56
2022/10/22 00:36:04;;;;;;;11.75;6.38;;;;;;;10.13;100.00;100807.94;5071295;28;20103;-56
2022/10/22 00:38:32;;;;;;;11.15;5.70;;;;;;;10.09;100.00;100806.44;5072450;28;20041;-48
2022/10/22 00:41:01;;;;;;;10.52;5.70;;;;;;;10.01;100.00;100802.59;5072360;28;20041;-50
2022/10/22 00:43:35;;;;;;;9.23;5.90;;;;;;;9.95;100.00;100798.59;5072639;28;20044;-49
2022/10/22 00:46:03;;;;;;;10.50;6.10;;;;;;;9.91;100.00;100800.59;5072310;28;20507;-48
2022/10/22 00:48:33;;;;;;;9.25;6.32;;;;;;;9.92;100.00;100797.00;5072251;28;20389;-50
2022/10/22 00:51:05;;;;;;;9.70;6.03;;;;;;;9.89;100.00;100793.75;5072756;28;20429;-51
2022/10/22 00:53:37;;;;;;;11.50;6.18;;;;;;;9.88;100.00;100802.56;5072440;28;20044;-49
2022/10/22 00:56:06;;;;;;;8.98;5.63;;;;;;;9.85;100.00;100800.97;5072478;28;20398;-51
2022/10/22 00:58:39;;;;;;;9.73;5.43;;;;;;;9.90;100.00;100801.53;5071116;28;20048;-48
2022/10/22 01:01:13;;;;;;;9.60;5.30;;;;;;;9.85;100.00;100797.50;5072255;28;20074;-49
2022/10/22 01:03:43;;;;;;;8.73;4.55;;;;;;;9.83;100.00;100802.84;5070908;28;20070;-51
2022/10/22 01:06:17;;;;;;;9.45;4.13;;;;;;;9.81;100.00;100809.97;5072288;28;20048;-53
2022/10/22 01:08:56;;;;;;;9.23;4.97;;;;;;;9.84;100.00;100801.88;5072430;28;20042;-52
2022/10/22 01:11:33;;;;;;;10.35;4.25;;;;;;;9.78;100.00;100808.38;5071979;28;20044;-48
2022/10/22 01:14:12;;;;;;;8.38;4.88;;;;;;;9.68;100.00;100809.91;5071628;28;20055;-50
2022/10/22 01:16:50;;;;;;;9.80;4.60;;;;;;;9.69;100.00;100800.22;5071559;28;20051;-51
2022/10/22 01:19:49;;;;;;;12.88;4.93;;;;;;;9.70;100.00;100809.81;5072627;28;20044;-49
2022/10/22 01:22:25;;;;;;;9.65;4.45;;;;;;;9.67;100.00;100805.59;5074864;28;20060;-47
2022/10/22 01:24:58;;;;;;;9.25;4.97;;;;;;;9.67;100.00;100807.34;5076121;28;20052;-50
2022/10/22 01:27:39;;;;;;;7.63;4.75;;;;;;;9.64;100.00;100800.53;5076026;28;20044;-49
2022/10/22 01:30:11;;;;;;;7.97;4.68;;;;;;;9.68;100.00;100802.03;5076062;28;20437;-51
2022/10/22 01:32:43;;;;;;;9.00;4.60;;;;;;;9.62;100.00;100799.75;5075447;28;20153;-56
2022/10/22 01:35:14;;;;;;;9.15;4.68;;;;;;;9.61;100.00;100795.44;5072432;28;20572;-49
2022/10/22 01:37:48;;;;;;;8.77;4.50;;;;;;;9.56;100.00;100794.91;5072724;28;20060;-51
2022/10/22 01:40:17;;;;;;;7.47;4.50;;;;;;;9.60;100.00;100791.97;5073102;28;20658;-55
2022/10/22 01:42:58;;;;;;;9.18;4.53;;;;;;;9.57;100.00;100786.94;5075462;28;20040;-55
2022/10/22 01:45:30;;;;;;;8.05;4.18;;;;;;;9.49;100.00;100791.81;5072658;28;20036;-55
2022/10/22 01:48:12;;;;;;;10.07;5.65;;;;;;;9.48;100.00;100790.13;5072374;28;20529;-54
2022/10/22 01:51:17;;;;;;;9.55;4.75;;;;;;;9.46;100.00;100805.09;5072006;28;20495;-55
2022/10/22 01:53:53;;;;;;;7.43;4.30;;;;;;;9.42;100.00;100793.97;5070690;28;20048;-52
2022/10/22 01:56:36;;;;;;;14.73;6.00;;;;;;;9.44;100.00;100797.31;5074289;28;20043;-49
2022/10/22 01:59:12;;;;;;;13.00;6.43;;;;;;;9.57;100.00;100794.81;5075226;28;20040;-55
2022/10/22 02:01:48;;;;;;;12.18;7.20;;;;;;;9.60;100.00;100802.47;5070967;28;20067;-47
2022/10/22 02:04:20;;;;;;;12.32;7.80;;;;;;;9.63;100.00;100810.16;5072832;28;20059;-48
2022/10/22 02:06:51;;;;;;;13.60;6.95;;;;;;;9.62;100.00;100792.72;5074287;28;20044;-51
2022/10/22 02:09:21;;;;;;;13.65;6.82;;;;;;;9.63;100.00;100801.47;5075402;28;20118;-51
2022/10/22 02:11:51;;;;;;;10.23;6.05;;;;;;;9.64;100.00;100796.09;5073998;28;20062;-52
2022/10/22 02:14:20;;;;;;;11.00;5.93;;;;;;;9.62;100.00;100803.22;5075201;28;20604;-51
2022/10/22 02:16:50;;;;;;;12.73;6.28;;;;;;;9.61;100.00;100796.31;5075184;28;20102;-49
2022/10/22 02:19:26;;;;;;;13.35;6.00;;;;;;;9.61;100.00;100796.31;5075043;28;20556;-48
2022/10/22 02:21:55;;;;;;;8.07;5.30;;;;;;;9.58;100.00;100795.63;5075016;28;20041;-47
2022/10/22 02:24:24;;;;;;;8.77;5.60;;;;;;;9.54;100.00;100789.72;5074448;28;20044;-49
2022/10/22 02:26:59;;;;;;;10.43;5.72;;;;;;;9.51;100.00;100791.72;5073710;28;20072;-49
2022/10/22 02:29:30;;;;;;;11.68;6.00;;;;;;;9.51;100.00;100799.59;5073627;28;20044;-51
2022/10/22 02:32:04;;;;;;;10.55;5.13;;;;;;;9.47;100.00;100791.91;5071766;28;20059;-54
2022/10/22 02:34:33;;;;;;;9.00;5.18;;;;;;;9.43;100.00;100793.00;5071689;28;20097;-54
2022/10/22 02:37:03;;;;;;;13.10;5.65;;;;;;;9.44;100.00;100789.44;5073849;28;20037;-55
2022/10/22 02:39:32;;;;;;;9.95;5.00;;;;;;;9.44;100.00;100789.44;5070593;28;20070;-50
2022/10/22 02:42:01;;;;;;;8.85;5.00;;;;;;;9.44;100.00;100791.25;5071806;28;20071;-48
2022/10/22 02:44:30;;;;;;;11.07;5.32;;;;;;;9.41;100.00;100794.06;5071496;28;20064;-47
2022/10/22 02:47:00;;;;;;;8.98;5.88;;;;;;;9.38;100.00;100794.22;5073916;28;20080;-49
2022/10/22 02:49:28;;;;;;;8.43;4.85;;;;;;;9.34;100.00;100790.97;5074316;28;20053;-50
2022/10/22 02:51:57;;;;;;;10.25;5.70;;;;;;;9.35;100.00;100794.41;5074615;28;20041;-47
2022/10/22 02:54:25;;;;;;;11.20;5.30;;;;;;;9.32;100.00;100794.63;5074452;28;20430;-49
2022/10/22 02:56:53;;;;;;;9.65;4.88;;;;;;;9.28;100.00;100796.56;5074442;28;20162;-50
2022/10/22 02:59:22;;;;;;;10.15;5.68;;;;;;;9.27;100.00;100793.13;5074755;28;20128;-52
2022/10/22 03:01:50;;;;;;;9.43;5.20;;;;;;;9.27;100.00;100792.25;5074688;28;20123;-51
2022/10/22 03:04:19;;;;;;;9.88;5.10;;;;;;;9.20;100.00;100790.94;5073967;28;20040;-50
2022/10/22 03:06:48;;;;;;;10.55;5.30;;;;;;;9.20;100.00;100786.53;5074201;28;20043;-49
2022/10/22 03:09:16;;;;;;;9.52;5.00;;;;;;;9.18;100.00;100793.66;5074239;28;20550;-47
2022/10/22 03:11:50;;;;;;;9.52;5.82;;;;;;;9.16;100.00;100790.28;5072548;28;20375;-50
2022/10/22 03:14:19;;;;;;;9.05;4.97;;;;;;;9.14;100.00;100794.78;5071108;28;20511;-51
2022/10/22 03:16:50;;;;;;;9.55;5.03;;;;;;;9.14;100.00;100789.53;5074057;28;20415;-48
2022/10/22 03:19:19;;;;;;;8.10;5.40;;;;;;;9.17;100.00;100791.97;5074114;28;20047;-48
2022/10/22 03:21:50;;;;;;;8.88;4.88;;;;;;;9.13;100.00;100793.94;5073925;28;20051;-50
2022/10/22 03:24:22;;;;;;;10.80;5.43;;;;;;;9.16;100.00;100800.78;5073785;28;20056;-54
2022/10/22 03:26:51;;;;;;;8.43;5.00;;;;;;;9.14;100.00;100797.41;5074170;28;20045;-55
2022/10/22 03:29:22;;;;;;;8.82;5.22;;;;;;;9.12;100.00;100792.25;5072454;28;20106;-49
2022/10/22 03:31:50;;;;;;;9.55;5.45;;;;;;;9.10;100.00;100801.97;5072669;28;20045;-50
2022/10/22 03:34:20;;;;;;;8.50;4.75;;;;;;;9.13;100.00;100807.06;5073440;28;20499;-48
2022/10/22 03:36:49;;;;;;;9.52;5.13;;;;;;;9.13;100.00;100811.47;5073634;28;20052;-49
2022/10/22 03:39:20;;;;;;;9.07;4.97;;;;;;;9.07;100.00;100806.59;5073260;28;20041;-48
2022/10/22 03:41:49;;;;;;;11.35;5.13;;;;;;;9.07;100.00;100817.91;5073345;28;20056;-49
2022/10/22 03:44:18;;;;;;;9.90;5.30;;;;;;;9.05;100.00;100809.31;5073573;28;20519;-47
2022/10/22 03:46:46;;;;;;;11.32;5.18;;;;;;;9.03;100.00;100813.78;5073422;28;20507;-47
2022/10/22 03:49:14;;;;;;;9.05;5.10;;;;;;;9.00;100.00;100813.97;5073047;28;20503;-49
2022/10/22 03:51:44;;;;;;;8.45;5.47;;;;;;;9.01;100.00;100817.44;5073275;28;20106;-47
2022/10/22 03:54:12;;;;;;;11.88;5.82;;;;;;;8.95;100.00;100816.84;5072806;28;20044;-46
2022/10/22 03:56:40;;;;;;;10.88;5.30;;;;;;;9.00;100.00;100816.59;5070592;28;20610;-49
2022/10/22 03:59:08;;;;;;;8.55;4.97;;;;;;;8.94;100.00;100823.06;5070805;28;20071;-52
2022/10/22 04:01:36;;;;;;;8.88;4.90;;;;;;;8.89;100.00;100830.34;5073415;28;20045;-47
2022/10/22 04:04:05;;;;;;;9.48;5.30;;;;;;;8.91;100.00;100828.47;5071044;28;20525;-48
2022/10/22 04:06:33;;;;;;;9.80;5.25;;;;;;;8.87;100.00;100826.94;5069980;28;20079;-47
2022/10/22 04:09:02;;;;;;;8.63;5.40;;;;;;;8.83;100.00;100830.69;5072089;28;20037;-49
2022/10/22 04:11:31;;;;;;;8.27;5.40;;;;;;;8.88;100.00;100830.44;5072905;28;20391;-49
2022/10/22 04:13:59;;;;;;;8.00;4.90;;;;;;;8.86;100.00;100837.53;5072859;28;20045;-50
2022/10/22 04:16:29;;;;;;;9.57;5.13;;;;;;;8.84;100.00;100835.00;5072916;28;20052;-48
2022/10/22 04:18:58;;;;;;;10.00;4.93;;;;;;;8.84;100.00;100840.25;5072922;28;20057;-47
2022/10/22 04:21:26;;;;;;;7.70;4.90;;;;;;;8.82;100.00;100839.50;5073249;28;20510;-50
2022/10/22 04:23:54;;;;;;;8.45;4.90;;;;;;;8.78;100.00;100832.72;5072571;28;20588;-51
2022/10/22 04:26:25;;;;;;;9.95;5.75;;;;;;;8.79;100.00;100840.53;5072840;28;20082;-55
2022/10/22 04:28:54;;;;;;;8.13;5.00;;;;;;;8.78;100.00;100837.97;5072610;28;20032;-52
2022/10/22 04:31:24;;;;;;;10.88;5.70;;;;;;;8.84;100.00;100842.88;5072596;28;20052;-52
2022/10/22 04:33:53;;;;;;;12.30;5.85;;;;;;;8.86;100.00;100838.41;5072410;28;20056;-48
2022/10/22 04:36:22;;;;;;;10.35;5.70;;;;;;;8.85;100.00;100841.94;5072471;28;20545;-48
2022/10/22 04:38:54;;;;;;;10.35;5.70;;;;;;;8.92;100.00;100838.03;5072253;28;20132;-51
2022/10/22 04:41:26;;;;;;;10.63;5.72;;;;;;;8.94;100.00;100837.94;5072608;28;20048;-48
2022/10/22 04:43:54;;;;;;;9.60;5.60;;;;;;;8.98;100.00;100838.59;5072455;28;20052;-50
2022/10/22 04:46:23;;;;;;;10.27;5.55;;;;;;;9.01;100.00;100841.88;5072262;28;20029;-49
2022/10/22 04:48:52;;;;;;;9.15;5.38;;;;;;;8.99;100.00;100829.81;5072149;28;20041;-51
2022/10/22 04:51:22;;;;;;;8.45;5.15;;;;;;;8.94;100.00;100830.94;5072376;28;20103;-47
2022/10/22 04:53:51;;;;;;;9.55;5.22;;;;;;;8.93;100.00;100836.22;5071985;28;20094;-51
2022/10/22 04:56:21;;;;;;;9.23;4.80;;;;;;;8.89;100.00;100834.72;5070994;28;20056;-47
2022/10/22 04:58:53;;;;;;;9.57;5.63;;;;;;;8.88;100.00;100830.44;5072565;28;20111;-48
2022/10/22 05:01:23;;;;;;;10.55;5.38;;;;;;;8.91;100.00;100836.31;5072376;28;20063;-49
2022/10/22 05:03:53;;;;;;;9.27;4.93;;;;;;;8.89;100.00;100843.44;5072139;28;20075;-50
2022/10/22 05:06:22;;;;;;;10.02;4.72;;;;;;;8.88;100.00;100844.38;5071391;28;20060;-51
2022/10/22 05:08:53;;;;;;;9.38;4.72;;;;;;;8.86;100.00;100848.88;5071804;28;20041;-52
2022/10/22 05:11:27;;;;;;;8.90;5.30;;;;;;;8.82;100.00;100843.88;5070209;28;20044;-51
2022/10/22 05:13:58;;;;;;;11.07;4.88;;;;;;;8.82;100.00;100842.13;5066849;28;20107;-50
2022/10/22 05:16:28;;;;;;;12.02;4.95;;;;;;;8.82;100.00;100849.13;5070094;28;20538;-47
2022/10/22 05:18:58;;;;;;;12.73;5.20;;;;;;;8.75;100.00;100839.00;5072156;28;20048;-49
2022/10/22 05:21:27;;;;;;;12.35;5.45;;;;;;;8.72;100.00;100844.41;5072192;28;20048;-55
2022/10/22 05:23:58;;;;;;;11.00;5.03;;;;;;;8.76;100.00;100845.09;5067117;28;20036;-55
2022/10/22 05:26:27;;;;;;;8.40;4.47;;;;;;;8.78;100.00;100844.06;5069366;28;20053;-55
2022/10/22 05:28:57;;;;;;;10.25;5.10;;;;;;;8.77;100.00;100852.03;5069925;28;20044;-54
2022/10/22 05:31:27;;;;;;;12.88;5.18;;;;;;;8.76;100.00;100847.72;5068905;28;20123;-53
2022/10/22 05:33:55;;;;;;;8.45;4.80;;;;;;;8.72;100.00;100851.44;5070579;28;20037;-55
2022/10/22 05:36:23;;;;;;;10.73;5.60;;;;;;;8.72;100.00;100851.44;5068785;28;20095;-52
2022/10/22 05:38:52;;;;;;;9.70;4.90;;;;;;;8.74;100.00;100857.44;5068111;28;20064;-53
2022/10/22 05:41:22;;;;;;;7.80;4.70;;;;;;;8.69;100.00;100859.50;5070723;28;20052;-52
2022/10/22 05:43:51;;;;;;;7.90;4.82;;;;;;;8.72;100.00;100856.69;5068562;28;20041;-53
2022/10/22 05:46:22;;;;;;;12.52;5.13;;;;;;;8.80;100.00;100860.53;5071422;28;20128;-53
2022/10/22 05:48:51;;;;;;;9.23;5.80;;;;;;;8.82;100.00;100860.50;5070520;28;20048;-55
2022/10/22 05:51:19;;;;;;;12.38;6.00;;;;;;;8.96;100.00;100867.56;5071707;28;20110;-54
2022/10/22 05:53:52;;;;;;;11.95;5.28;;;;;;;9.01;100.00;100865.47;5071550;28;20052;-54
2022/10/22 05:56:20;;;;;;;;;;;;;;;9.06;100.00;100871.31;5072346;28;20090;-54
2022/10/22 05:58:49;;;;;;;14.73;5.95;;;;;;;9.11;100.00;100866.66;5072005;28;19924;-54
2022/10/22 06:01:21;;;;;;;12.10;5.75;;;;;;;9.19;100.00;100871.47;5084369;28;20049;-55
2022/10/22 06:03:53;;;;;;;18.98;6.43;;;;;;;9.24;100.00;100876.41;5068850;28;20090;-54
2022/10/22 06:06:26;;;;;;;11.65;5.85;;;;;;;9.27;100.00;100879.72;5072579;28;20059;-51
2022/10/22 06:08:54;;;;;;;;;;;;;;;9.29;100.00;100884.88;5076011;28;20041;-51
2022/10/22 06:11:24;;;;;;;9.60;4.82;;;;;;;9.30;100.00;100879.53;5075240;28;19927;-52
2022/10/22 06:13:52;;;;;;;14.57;5.85;;;;;;;9.32;100.00;100887.31;5070657;28;20052;-48
2022/10/22 06:16:21;;;;;;;16.17;5.63;;;;;;;9.36;100.00;100886.19;5071941;28;20047;-46
2022/10/22 06:18:49;;;;;;;14.35;6.50;;;;;;;9.38;100.00;100892.22;5072600;28;20514;-48
2022/10/22 06:21:18;;;;;;;14.23;6.78;;;;;;;9.47;100.00;100893.44;5074386;28;20127;-47
2022/10/22 06:23:46;;;;;;;13.27;6.13;;;;;;;9.57;100.00;100891.97;5074399;28;20045;-48
2022/10/22 06:26:14;;;;;;;19.10;6.50;;;;;;;9.59;100.00;100894.47;5074615;28;20056;-47
2022/10/22 06:28:45;;;;;;;12.63;6.70;;;;;;;9.67;100.00;100904.50;5074265;28;20040;-54
2022/10/22 06:31:13;;;;;;;17.17;7.00;;;;;;;9.81;100.00;100894.84;5071628;28;20050;-54
2022/10/22 06:33:43;;;;;;;15.73;6.10;;;;;;;9.90;100.00;100900.50;5072602;28;20384;-55
2022/10/22 06:36:13;;;;;;;20.58;6.45;;;;;;;9.97;100.00;100907.91;5071781;28;20831;-55
2022/10/22 06:38:42;;;;;;;16.77;6.97;;;;;;;10.14;100.00;100908.63;5070231;28;20485;-54
2022/10/22 06:41:12;;;;;;;16.88;6.65;;;;;;;10.25;100.00;100914.09;5074358;28;20044;-56
2022/10/22 06:43:40;;;;;;;19.13;7.07;;;;;;;10.45;100.00;100918.09;5074131;28;20059;-55
2022/10/22 06:46:10;;;;;;;15.27;6.28;;;;;;;10.58;100.00;100917.31;5074509;28;20044;-55
2022/10/22 06:48:49;;;;;;;16.35;6.15;;;;;;;10.69;100.00;100929.78;5071882;28;20507;-55
2022/10/22 06:51:19;;;;;;;14.13;6.03;;;;;;;10.72;100.00;100929.59;5071487;28;20044;-55
2022/10/22 06:53:48;;;;;;;19.85;7.35;;;;;;;10.88;100.00;100935.56;5068295;28;20059;-55
2022/10/22 06:56:20;;;;;;;21.35;6.90;;;;;;;10.92;100.00;100938.81;5071277;28;20050;-55
2022/10/22 06:58:48;;;;;;;18.95;6.68;;;;;;;11.07;100.00;100948.38;5070044;28;20056;-56
2022/10/22 07:01:18;;;;;;;17.33;6.78;;;;;;;11.11;100.00;100948.97;5073555;28;20039;-55
2022/10/22 07:03:50;;;;;;;17.48;6.63;;;;;;;11.11;100.00;100943.72;5071051;28;20407;-55
2022/10/22 07:06:20;;;;;;;18.27;6.88;;;;;;;11.17;100.00;100951.22;5071327;28;20048;-55
2022/10/22 07:08:48;;;;;;;18.20;7.05;;;;;;;11.18;100.00;100957.31;5069350;28;20567;-56
2022/10/22 07:11:18;;;;;;;18.75;6.40;;;;;;;11.26;100.00;100952.41;5072573;28;20388;-57
2022/10/22 07:13:47;;;;;;;18.13;6.57;;;;;;;11.33;100.00;100962.44;5071938;28;20041;-56
2022/10/22 07:16:17;;;;;;;16.65;6.88;;;;;;;11.54;100.00;100961.09;5069959;28;20132;-56
2022/10/22 07:18:45;;;;;;;20.33;7.22;;;;;;;11.65;100.00;100967.31;5070977;28;20487;-55
2022/10/22 07:21:17;;;;;;;18.52;7.35;;;;;;;11.72;100.00;100966.91;5070677;28;20495;-55
2022/10/22 07:23:45;;;;;;;17.50;6.90;;;;;;;11.77;100.00;100976.19;5069115;28;20534;-56
2022/10/22 07:26:16;;;;;;;15.88;6.72;;;;;;;11.88;100.00;100982.53;5070261;28;20055;-56
2022/10/22 07:28:44;;;;;;;22.45;8.13;;;;;;;11.89;100.00;100976.28;5070896;28;20067;-55
2022/10/22 07:31:13;;;;;;;18.10;6.93;;;;;;;11.92;100.00;100987.47;5070226;28;20036;-56
2022/10/22 07:33:42;;;;;;;18.73;6.70;;;;;;;12.03;100.00;100993.84;5069387;28;20388;-56
2022/10/22 07:36:16;;;;;;;15.20;6.05;;;;;;;12.04;100.00;100988.47;5071793;28;20044;-56
2022/10/22 07:38:46;;;;;;;16.67;6.18;;;;;;;12.10;100.00;100995.09;5073151;28;20052;-55
2022/10/22 07:41:16;;;;;;;16.10;6.53;;;;;;;12.17;100.00;100998.97;5070707;28;20113;-54
2022/10/22 07:43:45;;;;;;;17.65;6.22;;;;;;;12.22;100.00;101009.22;5069983;28;20040;-56
2022/10/22 07:46:13;;;;;;;15.23;5.70;;;;;;;12.25;100.00;101001.94;5073062;28;20498;-57
2022/10/22 07:48:41;;;;;;;12.70;5.82;;;;;;;12.32;100.00;101008.47;5072999;28;20052;-57
2022/10/22 07:51:10;;;;;;;17.65;6.35;;;;;;;12.41;100.00;101006.16;5071337;28;20102;-57
2022/10/22 07:53:38;;;;;;;14.50;5.70;;;;;;;12.45;100.00;101000.53;5068591;28;20040;-53
2022/10/22 07:56:07;;;;;;;12.80;4.88;;;;;;;12.50;100.00;101008.13;5069787;28;20044;-51
2022/10/22 07:58:36;;;;;;;14.32;5.18;;;;;;;12.57;100.00;101011.16;5073277;28;20535;-57
2022/10/22 08:01:05;;;;;;;14.93;5.43;;;;;;;12.61;100.00;101023.19;5073094;28;20051;-57
2022/10/22 08:03:34;;;;;;;13.13;4.68;;;;;;;12.68;100.00;101025.28;5069718;28;20077;-52
2022/10/22 08:06:02;;;;;;;15.20;5.22;;;;;;;12.74;100.00;101021.38;5070577;28;20056;-51
2022/10/22 08:08:30;;;;;;;14.90;4.95;;;;;;;12.78;100.00;101024.63;5071137;28;20056;-57
2022/10/22 08:11:00;;;;;;;12.68;4.20;;;;;;;12.82;100.00;101026.09;5087759;28;20123;-56
2022/10/22 08:13:31;;;;;;;13.68;4.35;;;;;;;12.91;100.00;101020.16;5070025;28;20135;-50
2022/10/22 08:16:00;;;;;;;14.18;4.88;;;;;;;13.04;100.00;101027.19;5071501;28;20499;-57
2022/10/22 08:18:28;;;;;;;13.82;5.00;;;;;;;13.11;100.00;101025.78;5072700;28;20075;-51
2022/10/22 08:20:57;;;;;;;13.50;4.45;;;;;;;13.15;100.00;101027.25;5072200;28;20229;-50
2022/10/22 08:23:25;;;;;;;15.90;4.72;;;;;;;13.26;100.00;101023.81;5068730;28;20443;-50
2022/10/22 08:25:56;;;;;;;12.95;3.70;;;;;;;13.39;100.00;101029.06;5070980;28;20045;-52
2022/10/22 08:28:27;;;;;;;15.57;4.45;;;;;;;13.51;100.00;101030.78;5071369;28;20091;-50
2022/10/22 08:30:57;;;;;;;12.48;3.90;;;;;;;13.57;100.00;101035.63;5072048;28;20060;-57
2022/10/22 08:33:25;;;;;;;14.82;4.00;;;;;;;13.65;100.00;101043.00;5072417;28;20127;-58
2022/10/22 08:35:53;;;;;;;14.95;4.28;;;;;;;13.67;100.00;101047.22;5069547;28;20041;-51
2022/10/22 08:38:21;;;;;;;15.40;4.45;;;;;;;13.78;100.00;101046.38;5068491;28;20036;-58
2022/10/22 08:40:52;;;;;;;14.25;4.13;;;;;;;13.84;100.00;101045.91;5070258;28;20079;-53
2022/10/22 08:43:48;;;;;;;13.18;3.97;;;;;;;13.95;100.00;101044.28;5071725;28;20056;-58
2022/10/22 08:46:34;;;;;;;11.18;3.65;;;;;;;14.08;100.00;101052.09;5069139;28;20449;-58
2022/10/22 08:49:08;;;;;;;12.73;3.83;;;;;;;14.26;100.00;101049.84;5067989;28;20487;-58
2022/10/22 08:51:39;;;;;;;13.55;3.95;;;;;;;14.31;100.00;101053.78;5069431;28;20057;-58
2022/10/22 08:54:19;;;;;;;15.95;3.95;;;;;;;14.36;100.00;101058.75;5066488;28;20052;-58
2022/10/22 08:57:00;;;;;;;13.02;3.97;;;;;;;14.41;100.00;101067.19;5072392;28;20612;-58
2022/10/22 08:59:37;;;;;;;10.55;3.42;;;;;;;14.47;100.00;101060.56;5072557;28;20056;-58
2022/10/22 09:02:22;;;;;;;16.50;3.45;;;;;;;14.55;100.00;101076.69;5072530;28;20040;-58
2022/10/22 09:05:02;;;;;;;12.13;3.40;;;;;;;14.61;100.00;101070.88;5069170;28;20063;-58
2022/10/22 09:07:30;;;;;;;9.65;3.13;;;;;;;14.66;100.00;101075.88;5068722;28;20052;-58
2022/10/22 09:10:00;;;;;;;13.40;3.05;;;;;;;14.68;100.00;101073.94;5068179;28;20049;-58
2022/10/22 09:12:28;;;;;;;12.20;2.78;;;;;;;14.73;100.00;101078.88;5068930;28;20036;-57
2022/10/22 09:14:57;;;;;;;10.30;3.17;;;;;;;14.71;100.00;101081.63;5068791;28;20049;-58
2022/10/22 09:17:34;;;;;;;12.05;3.28;;;;;;;14.73;100.00;101087.66;5068784;28;20518;-58
2022/10/22 09:20:11;;;;;;;11.90;3.28;;;;;;;14.73;100.00;101078.88;5069809;28;20044;-58
2022/10/22 09:22:46;;;;;;;13.23;2.95;;;;;;;14.78;100.00;101095.22;5072448;28;20047;-52
2022/10/22 09:25:20;;;;;;;10.43;3.25;;;;;;;14.79;100.00;101095.13;5069097;28;20406;-58
2022/10/22 09:27:51;;;;;;;14.05;3.63;;;;;;;14.83;100.00;101099.22;5069007;28;20052;-58
2022/10/22 09:30:22;;;;;;;11.93;3.13;;;;;;;14.86;100.00;101106.91;5067704;28;20045;-57
2022/10/22 09:32:59;;;;;;;12.15;3.00;;;;;;;14.90;100.00;101106.66;5068908;28;20032;-57
2022/10/22 09:35:27;;;;;;;12.93;3.35;;;;;;;14.86;100.00;101113.97;5068775;28;20094;-57
2022/10/22 09:37:56;;;;;;;10.82;2.92;;;;;;;14.91;100.00;101113.63;5069727;28;20135;-57
2022/10/22 09:40:24;;;;;;;11.13;2.83;;;;;;;14.94;100.00;101111.56;5072889;28;20413;-57
2022/10/22 09:42:52;;;;;;;9.60;2.78;;;;;;;14.94;100.00;101116.88;5074672;28;20697;-57
2022/10/22 09:45:25;;;;;;;11.00;2.65;;;;;;;14.91;100.00;101122.41;5075816;28;20526;-57
2022/10/22 09:48:17;;;;;;;12.68;3.58;;;;;;;14.94;100.00;101126.63;5075531;28;20056;-58
2022/10/22 09:50:48;;;;;;;13.05;3.38;;;;;;;14.97;100.00;101135.19;5075416;28;20056;-57
2022/10/22 09:53:19;;;;;;;13.30;3.42;;;;;;;14.98;100.00;101131.56;5073329;28;20040;-57
2022/10/22 09:55:56;;;;;;;16.95;3.70;;;;;;;15.09;100.00;101135.16;5071977;28;20454;-57
2022/10/22 09:58:25;;;;;;;16.10;3.50;;;;;;;15.10;100.00;101137.69;5071775;28;20044;-57
2022/10/22 10:00:56;;;;;;;14.85;3.30;;;;;;;15.16;100.00;101139.00;5072040;28;20090;-48
2022/10/22 10:03:27;;;;;;;10.25;2.72;;;;;;;15.16;100.00;101144.28;5072614;28;20048;-51
2022/10/22 10:05:58;;;;;;;10.02;3.08;;;;;;;15.22;100.00;101146.47;5075153;28;20456;-51
2022/10/22 10:08:33;;;;;;;10.93;3.03;;;;;;;15.19;100.00;101139.59;5075105;28;20068;-51
2022/10/22 10:11:10;;;;;;;11.90;3.25;;;;;;;15.21;100.00;101150.06;5075317;28;20047;-51
2022/10/22 10:13:46;;;;;;;10.32;2.70;;;;;;;15.27;100.00;101164.63;5075131;28;20080;-52
2022/10/22 10:16:28;;;;;;;11.40;3.00;;;;;;;15.32;100.00;101168.59;5075012;28;20430;-51
2022/10/22 10:19:17;;;;;;;11.95;3.50;;;;;;;15.31;100.00;101171.38;5074946;28;20499;-51
2022/10/22 10:21:54;;;;;;;12.35;3.50;;;;;;;15.37;100.00;101165.59;5074608;28;20152;-52
2022/10/22 10:24:28;;;;;;;10.90;3.08;;;;;;;15.45;100.00;101167.63;5075144;28;20399;-51
2022/10/22 10:27:02;;;;;;;13.23;3.20;;;;;;;15.50;100.00;101178.69;5074899;28;20567;-52
2022/10/22 10:29:44;;;;;;;14.50;3.40;;;;;;;15.56;100.00;101180.84;5072394;28;20067;-52
2022/10/22 10:32:42;;;;;;;11.25;3.20;;;;;;;15.50;100.00;101176.91;5071477;28;20094;-52
2022/10/22 10:35:22;;;;;;;12.23;2.95;;;;;;;15.59;100.00;101177.13;5069307;28;20061;-52
2022/10/22 10:38:01;;;;;;;14.00;3.42;;;;;;;15.78;100.00;101181.75;5074703;28;20048;-52
2022/10/22 10:40:37;;;;;;;11.35;3.70;;;;;;;15.89;100.00;101184.41;5074614;28;20052;-52
2022/10/22 10:43:13;;;;;;;15.10;3.28;;;;;;;15.95;100.00;101183.91;5074730;28;20087;-54
2022/10/22 10:45:48;;;;;;;13.18;3.53;;;;;;;16.02;100.00;101197.47;5074559;28;20041;-54
2022/10/22 10:48:43;;;;;;;12.90;3.40;;;;;;;16.07;100.00;101194.47;5074539;28;20451;-52
2022/10/22 10:51:35;;;;;;;10.57;3.13;;;;;;;16.10;100.00;101196.84;5071210;28;20485;-53
2022/10/22 10:54:26;;;;;;;9.50;3.20;;;;;;;16.13;100.00;101193.94;5071977;28;20491;-53
2022/10/22 10:56:57;;;;;;;13.85;3.30;;;;;;;16.18;100.00;101197.03;5074235;28;20131;-50
2022/10/22 10:59:39;;;;;;;15.18;3.85;;;;;;;16.19;100.00;101196.09;5074250;28;20052;-51
2022/10/22 11:02:25;;;;;;;10.93;3.92;;;;;;;16.31;100.00;101194.22;5074415;28;20089;-59
2022/10/22 11:05:14;;;;;;;12.60;3.95;;;;;;;16.63;100.00;101193.31;5072184;28;20082;-58
2022/10/22 11:07:48;;;;;;;12.48;3.60;;;;;;;16.85;100.00;101192.28;5071070;28;20131;-52
2022/10/22 11:10:34;;;;;;;12.70;3.47;;;;;;;17.23;100.00;101193.44;5070729;28;20052;-58
2022/10/22 11:13:08;;;;;;;13.93;3.47;;;;;;;17.64;100.00;101196.94;5072115;28;20044;-58
2022/10/22 11:15:39;;;;;;;12.25;3.53;;;;;;;17.66;100.00;101197.63;5086580;28;20045;-58
2022/10/22 11:18:16;;;;;;;10.90;3.20;;;;;;;17.88;100.00;101195.69;5070961;28;20093;-57
2022/10/22 11:20:53;;;;;;;13.90;3.33;;;;;;;18.32;100.00;101190.78;5072816;28;20510;-59
2022/10/22 11:23:30;;;;;;;13.80;3.03;;;;;;;18.40;100.00;101184.75;5071083;28;20048;-61
2022/10/22 11:26:00;;;;;;;11.43;2.67;;;;;;;18.61;100.00;101195.25;5070841;28;20041;-59
2022/10/22 11:28:33;;;;;;;16.30;2.72;;;;;;;19.04;100.00;101190.34;5070093;28;20110;-59
2022/10/22 11:31:05;;;;;;;10.15;2.33;;;;;;;19.45;100.00;101198.00;5071560;28;20190;-59
2022/10/22 11:33:45;;;;;;;11.85;2.53;;;;;;;19.64;100.00;101199.69;5073726;28;20045;-60
2022/10/22 11:36:14;;;;;;;9.90;2.08;;;;;;;19.56;100.00;101197.78;5072747;28;20053;-59
2022/10/22 11:38:44;;;;;;;12.10;2.38;;;;;;;19.50;100.00;101198.41;5069419;28;20048;-55